Time;durP1;ratioP1;P1;durP2;ratioP2;P2;SDS_P1;SDS_P2;PMS_P1;PMS_P2;Temp;Humidity;BMP_temperature;BMP_pressure;BME280_temperature;BME280_humidity;BME280_pressure;Samples;Min_cycle;Max_cycle;Signal;HPM_P1;HPM_P2
2021/08/16 00:00:13;;;;;;;21.05;9.75;;;17.90;99.90;;;;;;5073538;28;20041;-68
2021/08/16 00:02:39;;;;;;;17.23;9.10;;;17.90;99.90;;;;;;5073544;28;20037;-67
2021/08/16 00:05:05;;;;;;;20.77;9.18;;;17.90;99.90;;;;;;5073607;28;20044;-68
2021/08/16 00:07:31;;;;;;;18.10;9.68;;;17.90;99.90;;;;;;5073728;28;20397;-68
2021/08/16 00:09:57;;;;;;;17.88;10.23;;;17.80;99.90;;;;;;5073388;28;20040;-68
2021/08/16 00:12:23;;;;;;;18.88;9.57;;;17.90;99.90;;;;;;5073412;28;20435;-68
2021/08/16 00:14:49;;;;;;;19.92;9.82;;;17.80;99.90;;;;;;5073500;28;20063;-68
2021/08/16 00:17:14;;;;;;;15.52;6.47;;;17.80;99.90;;;;;;5073244;28;20533;-68
2021/08/16 00:19:41;;;;;;;11.98;5.70;;;17.80;99.90;;;;;;5072818;28;20071;-69
2021/08/16 00:22:06;;;;;;;9.18;5.25;;;17.70;99.90;;;;;;5073277;28;20052;-69
2021/08/16 00:24:32;;;;;;;6.95;4.25;;;17.60;99.90;;;;;;5073538;28;20048;-69
2021/08/16 00:26:59;;;;;;;5.43;3.80;;;17.50;99.90;;;;;;5073422;28;20484;-69
2021/08/16 00:29:25;;;;;;;11.30;4.32;;;17.40;99.90;;;;;;5073106;28;20043;-69
2021/08/16 00:31:51;;;;;;;8.85;4.85;;;17.30;99.90;;;;;;5073614;28;20403;-69
2021/08/16 00:34:18;;;;;;;6.25;3.60;;;17.30;99.90;;;;;;5073114;28;20063;-69
2021/08/16 00:36:43;;;;;;;10.43;4.30;;;17.20;99.90;;;;;;5073619;28;20476;-69
2021/08/16 00:39:09;;;;;;;7.60;3.60;;;17.20;99.90;;;;;;5073041;28;20037;-69
2021/08/16 00:41:37;;;;;;;7.20;3.88;;;17.10;99.90;;;;;;5073461;28;20046;-69
2021/08/16 00:44:07;;;;;;;7.80;4.28;;;17.10;99.90;;;;;;5073402;28;20040;-69
2021/08/16 00:46:34;;;;;;;9.73;4.53;;;17.10;99.90;;;;;;5073123;28;20174;-69
2021/08/16 00:48:59;;;;;;;10.68;4.80;;;17.10;99.90;;;;;;5072923;28;20107;-69
2021/08/16 00:51:27;;;;;;;10.35;4.28;;;17.10;99.90;;;;;;5072957;28;20123;-69
2021/08/16 00:53:53;;;;;;;8.38;4.50;;;17.10;99.90;;;;;;5074281;28;20044;-69
2021/08/16 00:56:20;;;;;;;8.95;4.90;;;17.10;99.90;;;;;;5077171;28;20044;-69
2021/08/16 00:58:46;;;;;;;8.90;4.93;;;17.10;99.90;;;;;;5076801;28;20052;-69
2021/08/16 01:01:12;;;;;;;6.43;4.22;;;17.10;99.90;;;;;;5077176;28;20036;-69
2021/08/16 01:03:38;;;;;;;9.70;4.90;;;17.10;99.90;;;;;;5077479;28;20182;-69
2021/08/16 01:06:04;;;;;;;12.57;5.10;;;17.10;99.90;;;;;;5077132;28;20040;-69
2021/08/16 01:08:29;;;;;;;10.27;5.45;;;17.10;99.90;;;;;;5076555;28;20047;-69
2021/08/16 01:10:55;;;;;;;11.63;6.13;;;17.10;99.90;;;;;;5077043;28;20068;-69
2021/08/16 01:13:22;;;;;;;13.82;6.57;;;17.10;99.90;;;;;;5076944;28;20051;-69
2021/08/16 01:16:00;;;;;;;11.95;6.90;;;17.10;99.90;;;;;;5077192;28;20033;-69
2021/08/16 01:18:28;;;;;;;14.45;8.65;;;17.20;99.90;;;;;;5077308;28;20041;-69
2021/08/16 01:20:55;;;;;;;17.23;9.20;;;17.20;99.90;;;;;;5076735;28;20090;-69
2021/08/16 01:23:21;;;;;;;15.07;8.65;;;17.20;99.90;;;;;;5076934;28;20032;-69
2021/08/16 01:25:50;;;;;;;13.20;7.50;;;17.30;99.90;;;;;;5076903;28;20051;-69
2021/08/16 01:28:18;;;;;;;13.38;6.95;;;17.30;99.90;;;;;;5076511;28;20040;-69
2021/08/16 01:30:45;;;;;;;15.57;8.65;;;17.30;99.90;;;;;;5076287;28;20086;-69
2021/08/16 01:33:11;;;;;;;15.25;8.48;;;17.30;99.90;;;;;;5076377;28;20044;-69
2021/08/16 01:35:37;;;;;;;23.20;9.80;;;17.30;99.90;;;;;;5076497;28;20048;-69
2021/08/16 01:38:03;;;;;;;17.88;8.30;;;17.30;99.90;;;;;;5076454;28;20040;-69
2021/08/16 01:40:29;;;;;;;17.38;8.20;;;17.30;99.90;;;;;;5076324;28;20358;-69
2021/08/16 01:42:55;;;;;;;21.58;8.35;;;17.30;99.90;;;;;;5076795;28;20037;-69
2021/08/16 01:45:21;;;;;;;18.58;8.63;;;17.30;99.90;;;;;;5076341;28;20086;-69
2021/08/16 01:47:47;;;;;;;23.52;9.77;;;17.30;99.90;;;;;;5076359;28;20056;-69
2021/08/16 01:50:13;;;;;;;20.20;8.82;;;17.30;99.90;;;;;;5076119;28;20076;-69
2021/08/16 01:52:38;;;;;;;18.65;8.30;;;17.30;99.90;;;;;;5076302;28;20034;-69
2021/08/16 01:55:06;;;;;;;24.75;8.50;;;17.30;99.90;;;;;;5076317;28;20102;-69
2021/08/16 01:57:32;;;;;;;22.25;8.35;;;17.30;99.90;;;;;;5076383;28;20109;-69
2021/08/16 01:59:58;;;;;;;18.35;7.40;;;17.40;99.90;;;;;;5075717;28;20041;-69
2021/08/16 02:02:23;;;;;;;20.13;7.10;;;17.30;99.90;;;;;;5075795;28;20066;-69
2021/08/16 02:04:49;;;;;;;16.13;7.88;;;17.30;99.90;;;;;;5075661;28;20079;-69
2021/08/16 02:07:15;;;;;;;17.60;6.78;;;17.30;99.90;;;;;;5075031;28;20491;-69
2021/08/16 02:09:41;;;;;;;22.02;7.20;;;17.30;99.90;;;;;;5075704;28;20617;-68
2021/08/16 02:12:08;;;;;;;22.95;7.80;;;17.40;99.90;;;;;;5075992;28;20051;-69
2021/08/16 02:14:33;;;;;;;20.33;7.85;;;17.40;99.90;;;;;;5075493;28;20043;-68
2021/08/16 02:16:59;;;;;;;24.27;8.25;;;17.40;99.90;;;;;;5075769;28;20045;-69
2021/08/16 02:19:25;;;;;;;22.90;8.75;;;17.40;99.90;;;;;;5075268;28;20041;-69
2021/08/16 02:21:51;;;;;;;23.30;8.85;;;17.30;99.90;;;;;;5075611;28;20435;-68
2021/08/16 02:24:17;;;;;;;28.20;8.85;;;17.40;99.90;;;;;;5075564;28;20123;-69
2021/08/16 02:26:43;;;;;;;28.42;9.18;;;17.40;99.90;;;;;;5075553;28;20131;-69
2021/08/16 02:29:11;;;;;;;21.38;10.63;;;17.30;99.90;;;;;;5075543;28;20068;-69
2021/08/16 02:31:36;;;;;;;23.10;10.13;;;17.40;99.90;;;;;;5075946;28;20044;-69
2021/08/16 02:34:02;;;;;;;23.42;9.27;;;17.40;99.90;;;;;;5075364;28;20094;-69
2021/08/16 02:36:28;;;;;;;22.00;8.80;;;17.40;99.90;;;;;;5075306;28;20086;-69
2021/08/16 02:38:54;;;;;;;23.40;8.68;;;17.30;99.90;;;;;;5075338;28;20108;-68
2021/08/16 02:41:19;;;;;;;23.92;8.20;;;17.30;99.90;;;;;;5075209;28;20040;-69
2021/08/16 02:43:45;;;;;;;26.52;8.13;;;17.30;99.90;;;;;;5075635;28;20048;-69
2021/08/16 02:46:11;;;;;;;25.17;7.63;;;17.30;99.90;;;;;;5075496;28;20041;-69
2021/08/16 02:48:36;;;;;;;25.17;8.40;;;17.30;99.90;;;;;;5074670;28;20120;-69
2021/08/16 02:51:02;;;;;;;25.80;7.70;;;17.30;99.90;;;;;;5075102;28;20032;-69
2021/08/16 02:53:28;;;;;;;24.17;7.82;;;17.20;99.90;;;;;;5075262;28;20075;-69
2021/08/16 02:55:53;;;;;;;27.52;8.07;;;17.20;99.90;;;;;;5074868;28;20048;-69
2021/08/16 02:58:19;;;;;;;22.73;7.43;;;17.20;99.90;;;;;;5075247;28;20040;-68
2021/08/16 03:00:45;;;;;;;24.77;7.80;;;17.20;99.90;;;;;;5074539;28;20032;-68
2021/08/16 03:03:10;;;;;;;21.08;7.65;;;17.20;99.90;;;;;;5074849;28;20412;-68
2021/08/16 03:05:36;;;;;;;20.40;8.25;;;17.20;99.90;;;;;;5074942;28;20044;-69
2021/08/16 03:08:02;;;;;;;28.27;8.70;;;17.30;99.90;;;;;;5074844;28;20043;-69
2021/08/16 03:10:28;;;;;;;27.25;8.85;;;17.20;99.90;;;;;;5074429;28;20500;-69
2021/08/16 03:12:53;;;;;;;24.73;8.88;;;17.20;99.90;;;;;;5074836;28;20488;-69
2021/08/16 03:15:19;;;;;;;22.58;9.40;;;17.20;99.90;;;;;;5074464;28;20048;-69
2021/08/16 03:17:45;;;;;;;22.98;8.30;;;17.20;99.90;;;;;;5074394;28;20047;-69
2021/08/16 03:20:11;;;;;;;21.20;7.70;;;17.20;99.90;;;;;;5072923;28;20140;-68
2021/08/16 03:22:37;;;;;;;21.30;7.18;;;17.20;99.90;;;;;;5074705;28;20093;-69
2021/08/16 03:25:03;;;;;;;24.27;8.30;;;17.20;99.90;;;;;;5074809;28;20048;-69
2021/08/16 03:27:29;;;;;;;30.00;8.65;;;17.20;99.90;;;;;;5074231;28;20115;-69
2021/08/16 03:29:54;;;;;;;22.13;7.75;;;17.20;99.90;;;;;;5074189;28;20150;-68
2021/08/16 03:32:20;;;;;;;19.08;8.02;;;17.20;99.90;;;;;;5074050;28;20037;-69
2021/08/16 03:34:46;;;;;;;23.25;9.23;;;17.20;99.90;;;;;;5074204;28;20044;-69
2021/08/16 03:37:12;;;;;;;22.85;7.80;;;17.20;99.90;;;;;;5074092;28;20488;-68
2021/08/16 03:39:38;;;;;;;31.40;8.65;;;17.20;99.90;;;;;;5073799;28;20059;-68
2021/08/16 03:42:03;;;;;;;27.33;9.25;;;17.20;99.90;;;;;;5073954;28;20086;-68
2021/08/16 03:44:29;;;;;;;19.92;7.75;;;17.20;99.90;;;;;;5074520;28;20036;-68
2021/08/16 03:46:55;;;;;;;22.75;7.75;;;17.20;99.90;;;;;;5074063;28;20048;-68
2021/08/16 03:49:20;;;;;;;22.75;8.85;;;17.20;99.90;;;;;;5073665;28;20037;-68
2021/08/16 03:51:46;;;;;;;21.92;8.70;;;17.20;99.90;;;;;;5074403;28;20043;-68
2021/08/16 03:54:12;;;;;;;26.95;8.80;;;17.30;99.90;;;;;;5074077;28;20097;-69
2021/08/16 03:56:38;;;;;;;25.73;8.90;;;17.20;99.90;;;;;;5073775;28;20044;-69
2021/08/16 03:59:03;;;;;;;21.25;8.75;;;17.30;99.90;;;;;;5073493;28;20048;-68
2021/08/16 04:01:29;;;;;;;25.20;9.30;;;17.20;99.90;;;;;;5073755;28;20044;-69
2021/08/16 04:03:55;;;;;;;25.88;9.07;;;17.20;99.90;;;;;;5073786;28;20041;-69
2021/08/16 04:06:20;;;;;;;24.15;8.65;;;17.20;99.90;;;;;;5073533;28;20044;-69
2021/08/16 04:08:46;;;;;;;25.75;8.43;;;17.20;99.90;;;;;;5073458;28;20090;-69
2021/08/16 04:11:13;;;;;;;22.95;9.68;;;17.20;99.90;;;;;;5073438;28;20119;-68
2021/08/16 04:13:39;;;;;;;31.85;9.40;;;17.20;99.90;;;;;;5073298;28;20535;-69
2021/08/16 04:16:05;;;;;;;21.35;9.73;;;17.20;99.90;;;;;;5072281;28;20124;-69
2021/08/16 04:18:31;;;;;;;23.20;9.43;;;17.20;99.90;;;;;;5073283;28;20063;-69
2021/08/16 04:20:57;;;;;;;23.75;9.07;;;17.20;99.90;;;;;;5073491;28;20154;-69
2021/08/16 04:23:24;;;;;;;21.60;8.15;;;17.20;99.90;;;;;;5073982;28;20047;-69
2021/08/16 04:25:50;;;;;;;20.10;8.18;;;17.20;99.90;;;;;;5073523;28;20050;-69
2021/08/16 04:28:15;;;;;;;17.35;8.30;;;17.20;99.90;;;;;;5073206;28;20040;-69
2021/08/16 04:30:41;;;;;;;17.67;7.70;;;17.10;99.90;;;;;;5072786;28;20040;-69
2021/08/16 04:33:07;;;;;;;16.45;7.55;;;17.10;99.90;;;;;;5073565;28;20397;-69
2021/08/16 04:35:33;;;;;;;15.95;7.13;;;17.00;99.90;;;;;;5073420;28;20068;-69
2021/08/16 04:37:59;;;;;;;13.55;6.18;;;17.00;99.90;;;;;;5073250;28;20064;-69
2021/08/16 04:40:25;;;;;;;15.60;6.95;;;16.90;99.90;;;;;;5073010;28;20485;-68
2021/08/16 04:42:52;;;;;;;15.50;6.70;;;16.90;99.90;;;;;;5073391;28;20085;-69
2021/08/16 04:45:18;;;;;;;12.52;7.72;;;16.90;99.90;;;;;;5073126;28;20451;-69
2021/08/16 04:47:45;;;;;;;14.60;7.13;;;16.90;99.90;;;;;;5073141;28;20036;-69
2021/08/16 04:50:12;;;;;;;13.88;7.07;;;16.90;99.90;;;;;;5072729;28;20068;-69
2021/08/16 04:52:38;;;;;;;11.32;6.20;;;16.90;99.90;;;;;;5073171;28;20119;-69
2021/08/16 04:55:04;;;;;;;15.10;7.00;;;16.80;99.90;;;;;;5073038;28;20121;-69
2021/08/16 04:57:37;;;;;;;20.48;7.57;;;16.80;99.90;;;;;;5072962;28;20094;-69
2021/08/16 05:00:07;;;;;;;18.27;7.72;;;16.80;99.90;;;;;;5073064;28;20094;-68
2021/08/16 05:02:33;;;;;;;11.45;7.07;;;16.80;99.90;;;;;;5072859;28;20572;-69
2021/08/16 05:05:07;;;;;;;17.55;7.38;;;16.90;99.90;;;;;;5073228;28;20115;-69
2021/08/16 05:07:38;;;;;;;11.95;6.63;;;16.90;99.90;;;;;;5072959;28;20400;-69
2021/08/16 05:10:07;;;;;;;10.45;5.85;;;16.80;99.90;;;;;;5072616;28;20036;-69
2021/08/16 05:12:35;;;;;;;8.75;4.85;;;16.90;99.90;;;;;;5073018;28;20037;-69
2021/08/16 05:15:00;;;;;;;10.05;5.43;;;16.80;99.90;;;;;;5072172;28;20094;-69
2021/08/16 05:17:26;;;;;;;15.80;5.88;;;16.80;99.90;;;;;;5072978;28;20041;-69
2021/08/16 05:19:52;;;;;;;13.07;5.35;;;16.80;99.90;;;;;;5072514;28;20546;-69
2021/08/16 05:22:19;;;;;;;9.50;5.43;;;16.80;99.90;;;;;;5072144;28;20048;-69
2021/08/16 05:24:45;;;;;;;10.38;5.50;;;16.80;99.90;;;;;;5073161;28;20513;-69
2021/08/16 05:27:30;;;;;;;7.78;4.60;;;16.90;99.90;;;;;;5071933;28;20097;-69
2021/08/16 05:29:56;;;;;;;9.70;4.57;;;16.90;99.90;;;;;;5072795;28;20036;-69
2021/08/16 05:32:22;;;;;;;8.13;4.20;;;17.00;99.90;;;;;;5072850;28;20369;-69
2021/08/16 05:34:48;;;;;;;8.40;4.32;;;17.10;99.90;;;;;;5072725;28;20052;-69
2021/08/16 05:37:15;;;;;;;7.85;4.47;;;17.10;99.90;;;;;;5072795;28;20041;-69
2021/08/16 05:39:41;;;;;;;7.35;3.78;;;17.10;99.90;;;;;;5072753;28;20051;-69
2021/08/16 05:42:09;;;;;;;6.32;3.88;;;17.10;99.90;;;;;;5076246;28;20123;-69
2021/08/16 05:44:36;;;;;;;6.93;4.32;;;17.10;99.90;;;;;;5076283;28;20094;-69
2021/08/16 05:47:02;;;;;;;7.15;3.78;;;17.10;99.90;;;;;;5076274;28;20040;-69
2021/08/16 05:49:32;;;;;;;9.70;4.03;;;17.10;99.90;;;;;;5075937;28;20045;-69
2021/08/16 05:51:57;;;;;;;8.75;4.32;;;17.10;99.90;;;;;;5076103;28;20040;-68
2021/08/16 05:54:23;;;;;;;9.63;4.03;;;17.10;99.90;;;;;;5076042;28;20068;-69
2021/08/16 05:56:49;;;;;;;5.20;3.20;;;17.20;99.90;;;;;;5076049;28;20101;-69
2021/08/16 05:59:15;;;;;;;11.43;3.72;;;17.20;99.90;;;;;;5075805;28;20107;-69
2021/08/16 06:01:41;;;;;;;7.20;3.83;;;17.10;99.90;;;;;;5075966;28;20044;-69
2021/08/16 06:04:07;;;;;;;7.70;3.38;;;17.10;99.90;;;;;;5076012;28;20075;-69
2021/08/16 06:06:34;;;;;;;8.05;3.40;;;17.10;99.90;;;;;;5075957;28;20097;-69
2021/08/16 06:09:02;;;;;;;8.98;4.05;;;17.00;99.90;;;;;;5075720;28;20044;-69
2021/08/16 06:11:27;;;;;;;7.18;3.60;;;17.10;99.90;;;;;;5075773;28;20139;-69
2021/08/16 06:13:53;;;;;;;11.13;3.75;;;17.10;99.90;;;;;;5075814;28;20106;-69
2021/08/16 06:16:19;;;;;;;6.45;3.67;;;17.10;99.90;;;;;;5076073;28;20032;-69
2021/08/16 06:18:45;;;;;;;5.97;3.40;;;17.10;99.90;;;;;;5075769;28;20051;-69
2021/08/16 06:21:11;;;;;;;6.70;3.50;;;17.10;99.90;;;;;;5075869;28;20033;-69
2021/08/16 06:23:37;;;;;;;8.75;4.35;;;17.10;99.90;;;;;;5075837;28;20028;-69
2021/08/16 06:26:03;;;;;;;7.60;3.80;;;17.10;99.90;;;;;;5075766;28;20049;-69
2021/08/16 06:28:29;;;;;;;9.45;4.40;;;17.10;99.90;;;;;;5075190;28;20102;-69
2021/08/16 06:30:55;;;;;;;7.95;4.03;;;17.10;99.90;;;;;;5075970;28;20032;-68
2021/08/16 06:33:21;;;;;;;10.93;4.25;;;17.00;99.90;;;;;;5075751;28;20036;-68
2021/08/16 06:35:47;;;;;;;8.95;4.47;;;17.10;99.90;;;;;;5075595;28;20051;-68
2021/08/16 06:38:24;;;;;;;6.45;3.75;;;17.10;99.90;;;;;;5075418;28;20048;-68
2021/08/16 06:40:55;;;;;;;5.18;3.88;;;17.10;99.90;;;;;;5074943;28;20404;-68
2021/08/16 06:43:22;;;;;;;9.23;3.90;;;17.10;99.90;;;;;;5075237;28;20044;-69
2021/08/16 06:45:48;;;;;;;6.50;4.38;;;17.20;99.90;;;;;;5073854;28;20508;-69
2021/08/16 06:48:15;;;;;;;7.72;4.10;;;17.20;99.90;;;;;;5075434;28;20169;-69
2021/08/16 06:50:41;;;;;;;8.15;3.85;;;17.30;99.90;;;;;;5074726;28;20503;-69
2021/08/16 06:53:11;;;;;;;6.90;3.60;;;17.20;99.90;;;;;;5074455;28;20111;-69
2021/08/16 06:55:37;;;;;;;9.50;3.90;;;17.20;99.90;;;;;;5075513;28;20135;-69
2021/08/16 06:58:03;;;;;;;6.25;3.70;;;17.20;99.90;;;;;;5074887;28;20033;-69
2021/08/16 07:00:30;;;;;;;6.47;3.38;;;17.10;99.90;;;;;;5074116;28;20369;-68
2021/08/16 07:02:58;;;;;;;6.15;3.88;;;17.10;99.90;;;;;;5075028;28;20033;-68
2021/08/16 07:05:23;;;;;;;6.93;2.75;;;17.00;99.90;;;;;;5074953;28;20122;-68
2021/08/16 07:07:52;;;;;;;4.53;2.80;;;17.00;99.90;;;;;;5075272;28;20136;-68
2021/08/16 07:10:21;;;;;;;12.68;3.40;;;16.90;99.90;;;;;;5074730;28;20048;-68
2021/08/16 07:12:47;;;;;;;4.90;3.08;;;16.90;99.90;;;;;;5074383;28;20111;-70
2021/08/16 07:15:13;;;;;;;5.57;2.95;;;17.00;99.90;;;;;;5074970;28;20126;-68
2021/08/16 07:17:38;;;;;;;4.55;2.70;;;17.00;99.90;;;;;;5074485;28;20078;-68
2021/08/16 07:20:06;;;;;;;5.28;2.50;;;17.00;99.90;;;;;;5074267;28;20040;-68
2021/08/16 07:22:35;;;;;;;5.32;3.17;;;17.00;99.90;;;;;;5074780;28;20032;-68
2021/08/16 07:25:01;;;;;;;5.57;2.70;;;17.00;99.90;;;;;;5074801;28;20060;-68
2021/08/16 07:27:26;;;;;;;3.80;2.60;;;17.00;99.90;;;;;;5074280;28;20111;-68
2021/08/16 07:29:52;;;;;;;5.03;2.97;;;17.00;99.90;;;;;;5074223;28;20036;-68
2021/08/16 07:32:18;;;;;;;6.90;3.45;;;17.00;99.90;;;;;;5074312;28;20431;-68
2021/08/16 07:34:44;;;;;;;9.30;3.70;;;16.90;99.90;;;;;;5074129;28;20037;-68
2021/08/16 07:37:11;;;;;;;7.00;2.85;;;16.90;99.90;;;;;;5073085;28;20408;-68
2021/08/16 07:39:37;;;;;;;6.55;2.97;;;16.90;99.90;;;;;;5072858;28;20043;-68
2021/08/16 07:42:03;;;;;;;5.65;3.60;;;16.90;99.90;;;;;;5074007;28;20045;-68
2021/08/16 07:44:29;;;;;;;5.30;3.03;;;17.00;99.90;;;;;;5073943;28;20047;-68
2021/08/16 07:46:56;;;;;;;4.50;2.75;;;17.20;99.90;;;;;;5074003;28;20040;-68
2021/08/16 07:49:22;;;;;;;9.00;3.05;;;17.20;99.90;;;;;;5073735;28;20044;-68
2021/08/16 07:51:48;;;;;;;6.47;2.83;;;17.30;99.90;;;;;;5056167;28;20097;-68
2021/08/16 07:54:14;;;;;;;6.43;3.00;;;17.20;99.90;;;;;;5074260;28;20132;-71
2021/08/16 07:56:39;;;;;;;8.40;2.90;;;17.20;99.90;;;;;;5072584;28;20116;-71
2021/08/16 07:59:05;;;;;;;6.10;2.60;;;17.30;99.90;;;;;;5071414;28;20047;-72
2021/08/16 08:01:31;;;;;;;6.30;2.28;;;17.30;99.90;;;;;;5071469;28;20043;-72
2021/08/16 08:03:56;;;;;;;6.20;2.88;;;17.40;99.90;;;;;;5071587;28;20048;-72
2021/08/16 08:06:22;;;;;;;6.00;2.40;;;17.40;99.90;;;;;;5071565;28;20055;-72
2021/08/16 08:08:48;;;;;;;3.33;2.00;;;17.60;99.90;;;;;;5071196;28;20082;-72
2021/08/16 08:11:13;;;;;;;5.30;2.35;;;17.70;99.90;;;;;;5071715;28;20497;-72
2021/08/16 08:13:39;;;;;;;7.22;2.42;;;17.90;99.90;;;;;;5073387;28;20052;-72
2021/08/16 08:16:05;;;;;;;6.25;2.10;;;18.00;99.90;;;;;;5073397;28;20033;-71
2021/08/16 08:18:31;;;;;;;8.57;2.50;;;18.00;99.90;;;;;;5073428;28;20166;-72
2021/08/16 08:20:56;;;;;;;6.20;2.15;;;17.80;99.90;;;;;;5073301;28;20041;-71
2021/08/16 08:23:22;;;;;;;4.18;2.28;;;17.90;99.90;;;;;;5073393;28;20036;-71
2021/08/16 08:25:48;;;;;;;5.32;1.98;;;17.70;99.90;;;;;;5072019;28;20048;-71
2021/08/16 08:28:17;;;;;;;4.72;2.15;;;17.70;99.90;;;;;;5073342;28;20036;-71
2021/08/16 08:30:44;;;;;;;5.97;2.53;;;17.70;99.90;;;;;;5072945;28;20056;-71
2021/08/16 08:33:15;;;;;;;5.72;2.30;;;17.70;99.90;;;;;;5073300;28;20151;-72
2021/08/16 08:35:47;;;;;;;5.72;2.65;;;17.60;99.90;;;;;;5073343;28;20040;-71
2021/08/16 08:38:14;;;;;;;6.57;2.30;;;17.50;99.90;;;;;;5073181;28;20048;-71
2021/08/16 08:40:41;;;;;;;6.57;2.65;;;17.30;99.90;;;;;;5073007;28;20043;-71
2021/08/16 08:43:13;;;;;;;5.93;2.33;;;17.30;99.90;;;;;;5073332;28;20044;-71
2021/08/16 08:45:40;;;;;;;3.83;2.20;;;17.30;99.90;;;;;;5073139;28;20040;-71
2021/08/16 08:48:06;;;;;;;5.07;2.58;;;17.40;99.90;;;;;;5073593;28;20040;-71
2021/08/16 08:50:32;;;;;;;8.15;2.75;;;17.50;99.90;;;;;;5072847;28;20094;-70
2021/08/16 08:53:01;;;;;;;6.95;3.08;;;17.50;99.90;;;;;;5073330;28;20041;-71
2021/08/16 08:55:28;;;;;;;10.85;3.20;;;17.60;99.90;;;;;;5071888;28;20037;-72
2021/08/16 08:57:54;;;;;;;5.85;2.83;;;17.50;99.90;;;;;;5073048;28;20500;-71
2021/08/16 09:00:19;;;;;;;10.57;3.03;;;17.60;99.90;;;;;;5072693;28;20033;-71
2021/08/16 09:02:59;;;;;;;7.85;3.05;;;17.70;99.90;;;;;;5072956;28;20396;-72
2021/08/16 09:05:25;;;;;;;10.48;3.10;;;17.90;99.90;;;;;;5073070;28;20044;-72
2021/08/16 09:07:54;;;;;;;9.68;3.30;;;18.10;99.90;;;;;;5073064;28;20044;-72
2021/08/16 09:10:22;;;;;;;6.68;2.83;;;18.20;99.90;;;;;;5072879;28;20041;-72
2021/08/16 09:12:48;;;;;;;9.15;3.55;;;18.50;99.90;;;;;;5073091;28;20037;-72
2021/08/16 09:15:17;;;;;;;6.50;3.22;;;18.50;99.90;;;;;;5074252;28;20413;-72
2021/08/16 09:17:43;;;;;;;7.57;2.88;;;18.40;99.90;;;;;;5077368;28;20041;-71
2021/08/16 09:20:26;;;;;;;9.90;3.20;;;18.30;99.90;;;;;;5076433;28;20037;-72
2021/08/16 09:23:13;;;;;;;14.20;3.38;;;18.10;99.90;;;;;;5076968;28;20032;-71
2021/08/16 09:25:42;;;;;;;12.15;3.78;;;17.90;99.90;;;;;;5076703;28;20048;-71
2021/08/16 09:28:08;;;;;;;9.15;2.72;;;17.70;99.90;;;;;;5077075;28;20374;-71
2021/08/16 09:30:37;;;;;;;7.40;2.80;;;17.70;99.90;;;;;;5076154;28;20162;-72
2021/08/16 09:33:18;;;;;;;11.68;3.38;;;17.50;99.90;;;;;;5076873;28;20045;-71
2021/08/16 09:35:57;;;;;;;9.05;2.60;;;17.40;99.90;;;;;;5076530;28;20385;-71
2021/08/16 09:38:36;;;;;;;11.45;2.80;;;17.30;99.90;;;;;;5076564;28;20083;-72
2021/08/16 09:41:03;;;;;;;8.85;2.78;;;17.10;99.90;;;;;;5076453;28;20060;-71
2021/08/16 09:43:29;;;;;;;6.28;2.70;;;16.90;99.90;;;;;;5076768;28;20044;-72
2021/08/16 09:45:56;;;;;;;6.28;1.92;;;16.80;99.90;;;;;;5096630;28;20070;-72
2021/08/16 09:48:23;;;;;;;8.18;1.90;;;16.80;99.90;;;;;;5097041;28;20036;-72
2021/08/16 09:50:59;;;;;;;4.15;1.70;;;16.60;99.90;;;;;;5096356;28;20074;-71
2021/08/16 09:53:25;;;;;;;4.93;1.80;;;16.50;99.90;;;;;;5096874;28;20043;-71
2021/08/16 09:56:01;;;;;;;5.13;1.92;;;16.30;99.90;;;;;;5096318;28;20426;-71
2021/08/16 09:58:27;;;;;;;5.63;2.10;;;16.10;99.90;;;;;;5096291;28;20401;-71
2021/08/16 10:00:53;;;;;;;7.18;2.13;;;16.10;99.90;;;;;;5096318;28;20484;-71
2021/08/16 10:03:19;;;;;;;6.13;2.03;;;16.00;99.90;;;;;;5096279;28;20040;-71
2021/08/16 10:05:47;;;;;;;8.35;2.47;;;16.00;99.90;;;;;;5096347;28;20044;-71
2021/08/16 10:08:14;;;;;;;7.03;2.15;;;16.00;99.90;;;;;;5096259;28;20528;-71
2021/08/16 10:10:41;;;;;;;10.32;2.63;;;16.10;99.90;;;;;;5095664;28;20088;-71
2021/08/16 10:13:09;;;;;;;7.28;1.80;;;16.20;99.90;;;;;;5095773;28;20040;-71
2021/08/16 10:15:47;;;;;;;6.47;2.10;;;16.20;99.90;;;;;;5096404;28;20040;-72
2021/08/16 10:18:23;;;;;;;7.95;1.95;;;16.20;99.90;;;;;;5096060;28;20111;-71
2021/08/16 10:20:49;;;;;;;6.03;1.80;;;16.20;99.90;;;;;;5096130;28;20036;-71
2021/08/16 10:23:19;;;;;;;4.05;2.15;;;16.20;99.90;;;;;;5096054;28;20415;-71
2021/08/16 10:25:46;;;;;;;6.00;1.73;;;16.20;99.90;;;;;;5095940;28;20040;-71
2021/08/16 10:28:22;;;;;;;7.28;2.13;;;16.40;99.90;;;;;;5094871;28;20036;-71
2021/08/16 10:30:47;;;;;;;7.57;2.17;;;16.50;99.90;;;;;;5095715;28;20064;-71
2021/08/16 10:33:13;;;;;;;6.55;2.03;;;16.60;99.90;;;;;;5095747;28;20063;-72
2021/08/16 10:35:40;;;;;;;7.60;2.42;;;16.60;99.90;;;;;;5095735;28;20513;-70
2021/08/16 10:38:10;;;;;;;6.10;2.25;;;16.70;99.90;;;;;;5089225;28;20052;-73
2021/08/16 10:40:42;;;;;;;6.15;1.88;;;16.80;99.90;;;;;;5074985;28;20044;-72
2021/08/16 10:43:10;;;;;;;8.93;2.22;;;16.80;99.90;;;;;;5075227;28;20047;-71
2021/08/16 10:45:47;;;;;;;10.50;2.35;;;16.80;99.90;;;;;;5075110;28;20040;-72
2021/08/16 10:48:26;;;;;;;8.48;1.90;;;16.80;99.90;;;;;;5075215;28;20432;-72
2021/08/16 10:51:11;;;;;;;8.52;2.80;;;16.80;99.90;;;;;;5075106;28;20534;-72
2021/08/16 10:53:48;;;;;;;7.47;2.55;;;16.90;99.90;;;;;;5074898;28;20548;-72
2021/08/16 10:56:18;;;;;;;10.30;2.47;;;16.90;99.90;;;;;;5073974;28;20040;-72
2021/08/16 10:58:45;;;;;;;12.48;2.72;;;16.90;99.90;;;;;;5074872;28;20052;-72
2021/08/16 11:01:30;;;;;;;12.63;3.22;;;16.90;99.90;;;;;;5075120;28;20119;-71
2021/08/16 11:04:04;;;;;;;15.52;3.33;;;17.00;99.90;;;;;;5074898;28;20032;-72
2021/08/16 11:06:30;;;;;;;9.80;2.85;;;17.10;99.90;;;;;;5073604;28;20040;-72
2021/08/16 11:08:57;;;;;;;10.50;2.63;;;17.30;99.90;;;;;;5074452;28;20480;-73
2021/08/16 11:11:23;;;;;;;11.65;3.15;;;17.20;99.90;;;;;;5075104;28;20066;-72
2021/08/16 11:13:48;;;;;;;8.65;3.08;;;17.20;99.90;;;;;;5073891;28;20036;-73
2021/08/16 11:16:14;;;;;;;10.57;2.50;;;17.40;99.90;;;;;;5075010;28;20044;-72
2021/08/16 11:18:41;;;;;;;7.97;2.72;;;17.50;99.90;;;;;;5074502;28;20037;-72
2021/08/16 11:21:09;;;;;;;8.32;2.08;;;17.50;99.90;;;;;;5074933;28;20060;-72
2021/08/16 11:23:36;;;;;;;12.60;2.92;;;17.40;99.90;;;;;;5073774;28;20036;-72
2021/08/16 11:26:02;;;;;;;6.88;2.40;;;17.50;99.90;;;;;;5074674;28;20193;-72
2021/08/16 11:28:30;;;;;;;11.57;2.65;;;17.40;99.90;;;;;;5074522;28;20036;-73
2021/08/16 11:31:07;;;;;;;6.97;2.45;;;17.50;99.90;;;;;;5074492;28;20033;-72
2021/08/16 11:33:34;;;;;;;14.43;2.55;;;17.40;99.90;;;;;;5074626;28;20063;-72
2021/08/16 11:36:05;;;;;;;9.70;2.50;;;17.50;99.90;;;;;;5074472;28;20427;-73
2021/08/16 11:38:30;;;;;;;7.25;2.42;;;17.70;99.90;;;;;;5074029;28;20047;-72
2021/08/16 11:41:04;;;;;;;11.13;2.63;;;17.70;99.90;;;;;;5074738;28;20047;-72
2021/08/16 11:43:30;;;;;;;;;;;17.70;99.90;;;;;;5075078;28;20110;-71
2021/08/16 11:45:55;;;;;;;9.38;2.95;;;17.80;99.90;;;;;;5074533;28;20364;-73
2021/08/16 11:48:23;;;;;;;10.35;2.80;;;17.80;99.90;;;;;;5073948;28;20091;-71
2021/08/16 11:50:56;;;;;;;8.75;2.67;;;18.00;99.90;;;;;;5073900;28;20041;-72
2021/08/16 11:53:21;;;;;;;;;;;17.80;99.90;;;;;;5074800;28;20041;-71
2021/08/16 11:55:47;;;;;;;8.52;2.70;;;17.50;99.90;;;;;;5074140;28;19970;-73
2021/08/16 11:58:13;;;;;;;9.20;2.63;;;17.40;99.90;;;;;;5073908;28;20132;-70
2021/08/16 12:00:40;;;;;;;12.13;2.67;;;17.40;99.90;;;;;;5073553;28;20040;-70
2021/08/16 12:03:07;;;;;;;14.20;3.13;;;17.60;99.90;;;;;;5074296;28;20059;-72
2021/08/16 12:05:34;;;;;;;8.45;2.67;;;17.60;99.90;;;;;;5074381;28;20075;-71
2021/08/16 12:08:00;;;;;;;15.73;2.67;;;17.60;99.90;;;;;;5074176;28;20036;-70
2021/08/16 12:10:27;;;;;;;9.18;2.47;;;17.60;99.90;;;;;;5073058;28;20135;-70
2021/08/16 12:13:02;;;;;;;8.73;2.58;;;17.80;99.90;;;;;;5073482;28;20098;-71
2021/08/16 12:15:27;;;;;;;12.38;2.70;;;17.70;99.90;;;;;;5073631;28;20043;-68
2021/08/16 12:18:05;;;;;;;8.02;2.50;;;17.80;99.90;;;;;;5073844;28;20408;-68
2021/08/16 12:20:42;;;;;;;7.80;2.30;;;17.90;99.90;;;;;;5073737;28;20037;-68
2021/08/16 12:23:08;;;;;;;8.88;2.53;;;17.90;99.70;;;;;;5056490;28;20078;-68
2021/08/16 12:25:44;;;;;;;15.57;2.78;;;18.00;99.90;;;;;;5073615;28;20056;-68
2021/08/16 12:28:10;;;;;;;9.02;2.53;;;18.00;99.90;;;;;;5073609;28;20082;-68
2021/08/16 12:30:35;;;;;;;11.68;2.28;;;18.00;99.80;;;;;;5073397;28;20423;-68
2021/08/16 12:33:12;;;;;;;8.65;2.33;;;18.00;99.20;;;;;;5073769;28;20472;-68
2021/08/16 12:35:38;;;;;;;11.32;2.63;;;18.00;99.90;;;;;;5073215;28;20041;-68
2021/08/16 12:38:06;;;;;;;9.25;2.60;;;18.10;98.80;;;;;;5073465;28;20431;-68
2021/08/16 12:40:32;;;;;;;6.70;2.25;;;18.20;99.50;;;;;;5073104;28;20436;-69
2021/08/16 12:43:03;;;;;;;6.30;1.80;;;18.20;97.30;;;;;;5073492;28;20036;-69